Time;durP1;ratioP1;P1;durP2;ratioP2;P2;SDS_P1;SDS_P2;PMS_P1;PMS_P2;Temp;Humidity;BMP_temperature;BMP_pressure;BME280_temperature;BME280_humidity;BME280_pressure;Samples;Min_cycle;Max_cycle;Signal;HPM_P1;HPM_P2
2023/05/16 00:02:19;;;;;;;11.80;2.67;;;9.60;99.90;;;;;;5075161;28;20036;-68
2023/05/16 00:04:45;;;;;;;8.00;2.58;;;9.70;99.90;;;;;;5075045;28;20036;-68
2023/05/16 00:07:11;;;;;;;13.63;2.53;;;9.60;99.90;;;;;;5074781;28;20040;-68
2023/05/16 00:09:37;;;;;;;10.68;2.47;;;9.60;99.90;;;;;;5074983;28;20054;-68
2023/05/16 00:12:03;;;;;;;17.15;3.65;;;9.60;99.90;;;;;;5093342;28;20032;-68
2023/05/16 00:14:29;;;;;;;11.80;2.70;;;9.50;99.90;;;;;;5093118;28;20411;-68
2023/05/16 00:16:57;;;;;;;14.25;2.90;;;9.50;99.90;;;;;;5093031;28;20036;-68
2023/05/16 00:19:22;;;;;;;10.40;2.45;;;9.50;99.90;;;;;;5074595;28;20055;-68
2023/05/16 00:21:48;;;;;;;11.68;2.88;;;9.40;99.90;;;;;;5074794;28;20419;-68
2023/05/16 00:24:14;;;;;;;12.20;2.05;;;9.40;99.90;;;;;;5092726;28;20407;-68
2023/05/16 00:26:39;;;;;;;10.60;2.63;;;9.40;99.90;;;;;;5074950;28;20040;-68
2023/05/16 00:29:05;;;;;;;16.27;3.35;;;9.40;99.90;;;;;;5074799;28;20491;-68
2023/05/16 00:31:31;;;;;;;11.98;2.70;;;9.40;99.90;;;;;;5057839;28;20040;-68
2023/05/16 00:33:57;;;;;;;10.00;2.10;;;9.40;99.90;;;;;;5092644;28;20135;-68
2023/05/16 00:36:22;;;;;;;14.15;2.50;;;9.40;99.90;;;;;;5092620;28;20097;-68
2023/05/16 00:38:48;;;;;;;13.23;2.75;;;9.40;99.90;;;;;;5092370;28;20047;-68
2023/05/16 00:41:14;;;;;;;12.15;2.55;;;9.40;99.90;;;;;;5074435;28;20038;-68
2023/05/16 00:43:39;;;;;;;12.38;3.55;;;9.40;99.90;;;;;;5092450;28;20032;-68
2023/05/16 00:46:05;;;;;;;15.48;2.75;;;9.40;99.90;;;;;;5092466;28;20040;-68
2023/05/16 00:48:31;;;;;;;13.23;2.60;;;9.40;99.90;;;;;;5092360;28;20570;-68
2023/05/16 00:50:57;;;;;;;8.45;2.72;;;9.30;99.90;;;;;;5074349;28;20119;-68
2023/05/16 00:53:23;;;;;;;20.17;3.60;;;9.30;99.90;;;;;;5092450;28;20078;-68
2023/05/16 00:55:50;;;;;;;11.38;2.35;;;9.20;99.90;;;;;;5092585;28;20047;-68
2023/05/16 00:58:16;;;;;;;16.65;2.50;;;9.20;99.90;;;;;;5092209;28;20040;-68
2023/05/16 01:00:43;;;;;;;11.63;2.70;;;9.20;99.90;;;;;;5092368;28;20036;-68
2023/05/16 01:03:11;;;;;;;11.18;3.20;;;9.20;99.90;;;;;;5073896;28;20040;-68
2023/05/16 01:05:36;;;;;;;10.45;2.00;;;9.20;99.90;;;;;;5073902;28;20500;-68
2023/05/16 01:08:02;;;;;;;18.48;2.90;;;9.10;99.90;;;;;;5092221;28;20043;-68
2023/05/16 01:10:37;;;;;;;10.35;2.40;;;9.10;99.90;;;;;;5092331;28;20074;-68
2023/05/16 01:13:23;;;;;;;10.40;2.30;;;9.10;99.90;;;;;;5092103;28;20061;-68
2023/05/16 01:16:12;;;;;;;7.10;2.42;;;9.10;99.90;;;;;;5074042;28;20087;-68
2023/05/16 01:19:06;;;;;;;9.05;1.83;;;9.10;99.90;;;;;;5073878;28;20044;-68
2023/05/16 01:21:49;;;;;;;11.70;2.15;;;9.00;99.90;;;;;;5074118;28;20102;-68
2023/05/16 01:24:33;;;;;;;12.10;2.13;;;9.00;99.90;;;;;;5074052;28;20441;-68
2023/05/16 01:26:59;;;;;;;12.70;2.55;;;9.00;99.90;;;;;;5073727;28;20036;-68
2023/05/16 01:29:25;;;;;;;6.20;1.65;;;9.00;99.90;;;;;;5091916;28;20035;-68
2023/05/16 01:31:50;;;;;;;12.57;2.80;;;9.00;99.90;;;;;;5091878;28;20036;-68
2023/05/16 01:34:17;;;;;;;10.25;2.00;;;9.00;99.90;;;;;;5073664;28;20032;-68
2023/05/16 01:37:18;;;;;;;12.57;2.25;;;9.00;99.90;;;;;;5073661;28;20227;-68
2023/05/16 01:39:51;;;;;;;10.90;1.88;;;8.90;99.90;;;;;;5091925;28;20054;-68
2023/05/16 01:42:20;;;;;;;6.90;1.60;;;8.90;99.90;;;;;;5091795;28;20488;-68
2023/05/16 01:45:07;;;;;;;7.57;1.77;;;8.90;99.90;;;;;;5060774;28;20519;-68
2023/05/16 01:47:39;;;;;;;10.43;2.10;;;8.90;99.90;;;;;;5080274;28;20388;-68
2023/05/16 01:50:13;;;;;;;9.57;2.25;;;8.90;99.90;;;;;;5080521;28;20075;-68
2023/05/16 01:52:57;;;;;;;7.43;2.60;;;8.90;99.90;;;;;;5080076;28;20047;-68
2023/05/16 01:55:35;;;;;;;9.77;2.45;;;8.90;99.90;;;;;;5098357;28;20047;-68
2023/05/16 01:58:04;;;;;;;12.43;1.98;;;8.80;99.90;;;;;;5098313;28;20043;-68
2023/05/16 02:00:30;;;;;;;15.55;1.95;;;8.80;99.90;;;;;;5080045;28;20039;-68
2023/05/16 02:02:56;;;;;;;15.70;3.00;;;8.80;99.90;;;;;;5098211;28;20040;-68
2023/05/16 02:05:22;;;;;;;6.53;2.00;;;8.80;99.90;;;;;;5098313;28;20085;-68
2023/05/16 02:07:47;;;;;;;6.60;1.75;;;8.90;99.90;;;;;;5098180;28;20032;-68
2023/05/16 02:10:13;;;;;;;14.45;2.05;;;8.90;99.90;;;;;;5098131;28;20040;-68
2023/05/16 02:12:39;;;;;;;10.82;2.35;;;8.80;99.90;;;;;;5079931;28;20046;-68
2023/05/16 02:15:05;;;;;;;11.60;2.20;;;8.90;99.90;;;;;;5088095;28;20040;-68
2023/05/16 02:17:31;;;;;;;12.35;1.73;;;8.80;99.90;;;;;;5079895;28;20165;-68
2023/05/16 02:19:56;;;;;;;5.28;1.60;;;8.80;99.90;;;;;;5080021;28;20067;-68
2023/05/16 02:22:22;;;;;;;9.43;2.20;;;8.80;99.90;;;;;;5098354;28;20036;-68
2023/05/16 02:24:48;;;;;;;9.82;1.85;;;8.80;99.90;;;;;;5097914;28;20039;-68
2023/05/16 02:27:13;;;;;;;7.95;2.25;;;8.70;99.90;;;;;;5062990;28;20434;-68
2023/05/16 02:29:39;;;;;;;12.05;2.58;;;8.70;99.90;;;;;;5098120;28;20423;-68
2023/05/16 02:32:05;;;;;;;11.27;2.65;;;8.70;99.90;;;;;;5080219;28;20115;-68
2023/05/16 02:34:30;;;;;;;11.95;2.78;;;8.70;99.90;;;;;;5098068;28;20517;-68
2023/05/16 02:36:56;;;;;;;13.38;2.60;;;8.70;99.90;;;;;;5079903;28;20044;-68
2023/05/16 02:39:21;;;;;;;11.40;2.13;;;8.70;99.90;;;;;;5097785;28;20044;-68
2023/05/16 02:41:47;;;;;;;8.25;2.22;;;8.70;99.90;;;;;;5098181;28;20036;-68
2023/05/16 02:44:12;;;;;;;9.27;1.95;;;8.60;99.90;;;;;;5098030;28;20042;-68
2023/05/16 02:46:38;;;;;;;11.30;2.53;;;8.70;99.90;;;;;;5079894;28;20040;-68
2023/05/16 02:49:04;;;;;;;12.98;3.58;;;8.70;99.90;;;;;;5063277;28;20043;-68
2023/05/16 02:51:30;;;;;;;11.25;2.00;;;8.70;99.90;;;;;;5097816;28;20070;-68
2023/05/16 02:53:56;;;;;;;8.95;2.10;;;8.60;99.90;;;;;;5097643;28;20040;-68
2023/05/16 02:56:21;;;;;;;16.92;2.35;;;8.60;99.90;;;;;;5076118;28;20035;-68
2023/05/16 02:58:48;;;;;;;11.18;2.05;;;8.60;99.90;;;;;;5076349;28;20036;-68
2023/05/16 03:01:15;;;;;;;11.45;2.30;;;8.60;99.90;;;;;;5076484;28;20070;-68
2023/05/16 03:03:41;;;;;;;11.10;2.80;;;8.60;99.90;;;;;;5059593;28;20032;-68
2023/05/16 03:06:06;;;;;;;14.82;2.85;;;8.50;99.90;;;;;;5076419;28;20036;-68
2023/05/16 03:08:33;;;;;;;9.73;1.80;;;8.50;99.90;;;;;;5094333;28;20047;-68
2023/05/16 03:10:59;;;;;;;10.30;1.67;;;8.50;99.90;;;;;;5094411;28;20477;-68
2023/05/16 03:13:25;;;;;;;9.15;2.03;;;8.60;99.90;;;;;;5076446;28;20128;-68
2023/05/16 03:15:51;;;;;;;10.52;2.15;;;8.50;99.90;;;;;;5094644;28;20040;-68
2023/05/16 03:18:17;;;;;;;14.60;2.67;;;8.50;99.90;;;;;;5094185;28;20043;-68
2023/05/16 03:20:42;;;;;;;7.13;2.17;;;8.50;99.90;;;;;;5094256;28;20036;-68
2023/05/16 03:23:08;;;;;;;9.30;2.38;;;8.50;99.90;;;;;;5075885;28;20415;-68
2023/05/16 03:25:37;;;;;;;14.18;2.33;;;8.50;99.90;;;;;;5075979;28;20123;-68
2023/05/16 03:28:09;;;;;;;14.57;2.25;;;8.50;99.90;;;;;;5094369;28;20035;-68
2023/05/16 03:30:34;;;;;;;10.52;2.50;;;8.50;99.90;;;;;;5094109;28;20204;-68
2023/05/16 03:33:00;;;;;;;15.18;2.40;;;8.50;99.90;;;;;;5093831;28;20455;-68
2023/05/16 03:35:27;;;;;;;17.75;3.28;;;8.50;99.90;;;;;;5093903;28;20107;-68
2023/05/16 03:37:53;;;;;;;8.63;2.05;;;8.50;99.90;;;;;;5093546;28;20036;-68
2023/05/16 03:40:18;;;;;;;7.38;2.47;;;8.50;99.90;;;;;;5093668;28;20047;-69
2023/05/16 03:42:44;;;;;;;11.25;2.20;;;8.50;99.90;;;;;;5093751;28;20031;-68
2023/05/16 03:45:10;;;;;;;12.70;2.35;;;8.50;99.90;;;;;;5093897;28;20032;-68
2023/05/16 03:47:36;;;;;;;8.55;2.15;;;8.40;99.90;;;;;;5093519;28;20152;-68
2023/05/16 03:50:02;;;;;;;10.90;2.30;;;8.50;99.90;;;;;;5093823;28;20177;-68
2023/05/16 03:52:28;;;;;;;8.60;2.30;;;8.50;99.90;;;;;;5058696;28;20555;-68
2023/05/16 03:54:53;;;;;;;8.07;2.22;;;8.50;99.90;;;;;;5093359;28;20119;-68
2023/05/16 03:57:19;;;;;;;14.77;2.20;;;8.50;99.90;;;;;;5093356;28;20079;-68
2023/05/16 03:59:44;;;;;;;13.25;2.80;;;8.50;99.90;;;;;;5075583;28;20516;-68
2023/05/16 04:02:10;;;;;;;6.43;2.08;;;8.50;99.90;;;;;;5093456;28;20104;-68
2023/05/16 04:04:35;;;;;;;12.10;2.08;;;8.50;99.90;;;;;;5093170;28;20032;-68
2023/05/16 04:07:01;;;;;;;11.32;2.88;;;8.50;99.90;;;;;;5074700;28;20576;-68
2023/05/16 04:09:27;;;;;;;17.50;3.22;;;8.60;99.90;;;;;;5093509;28;20449;-69
2023/05/16 04:11:55;;;;;;;8.80;1.95;;;8.60;99.90;;;;;;5075057;28;20382;-68
2023/05/16 04:14:21;;;;;;;9.18;2.05;;;8.50;99.90;;;;;;5058264;28;20119;-68
2023/05/16 04:16:47;;;;;;;9.75;1.90;;;8.60;99.90;;;;;;5092908;28;20043;-68
2023/05/16 04:19:13;;;;;;;6.60;1.63;;;8.60;99.90;;;;;;5092884;28;20127;-68
2023/05/16 04:21:38;;;;;;;15.68;2.30;;;8.60;99.90;;;;;;5074929;28;20043;-68
2023/05/16 04:24:04;;;;;;;16.08;2.47;;;8.70;99.90;;;;;;5074719;28;20036;-69
2023/05/16 04:26:30;;;;;;;11.18;1.98;;;8.70;99.90;;;;;;5092994;28;20036;-69
2023/05/16 04:28:57;;;;;;;7.22;2.00;;;8.70;99.90;;;;;;5092686;28;20128;-69
2023/05/16 04:31:25;;;;;;;7.72;1.83;;;8.80;99.90;;;;;;5092910;28;20036;-69
2023/05/16 04:33:51;;;;;;;11.13;2.13;;;8.80;99.90;;;;;;5091245;28;20040;-69
2023/05/16 04:36:16;;;;;;;5.75;2.03;;;8.80;99.90;;;;;;5054443;28;20102;-69
2023/05/16 04:38:42;;;;;;;8.27;2.00;;;8.80;99.90;;;;;;5072406;28;20044;-69
2023/05/16 04:41:08;;;;;;;14.50;3.22;;;8.90;99.90;;;;;;5072435;28;20086;-69
2023/05/16 04:43:34;;;;;;;7.75;1.85;;;8.90;99.90;;;;;;5072206;28;20032;-69
2023/05/16 04:46:00;;;;;;;16.48;3.65;;;8.90;99.90;;;;;;5072254;28;20454;-69
2023/05/16 04:48:25;;;;;;;9.60;2.55;;;8.80;99.90;;;;;;5072126;28;20098;-69
2023/05/16 04:50:51;;;;;;;12.70;2.33;;;8.90;99.90;;;;;;5054362;28;20040;-69
2023/05/16 04:53:17;;;;;;;7.45;1.77;;;8.90;99.90;;;;;;5072280;28;20068;-69
2023/05/16 04:55:42;;;;;;;9.18;1.70;;;8.90;99.90;;;;;;5054387;28;20123;-69
2023/05/16 04:58:08;;;;;;;10.82;2.13;;;9.10;99.90;;;;;;5072212;28;20040;-69
2023/05/16 05:00:33;;;;;;;6.53;1.67;;;9.10;99.90;;;;;;5072182;28;20040;-69
2023/05/16 05:05:27;;;;;;;8.30;1.80;;;9.10;99.90;;;;;;5029742;28;20398;-67
2023/05/16 05:07:53;;;;;;;4.95;1.73;;;9.00;99.90;;;;;;5031632;28;20064;-66
2023/05/16 05:10:18;;;;;;;8.80;1.73;;;9.00;99.90;;;;;;5031841;28;20087;-67
2023/05/16 05:12:44;;;;;;;12.68;2.40;;;9.00;99.90;;;;;;5031918;28;20041;-66
2023/05/16 05:15:10;;;;;;;9.40;1.95;;;9.10;99.90;;;;;;5048537;28;20457;-66
2023/05/16 05:17:36;;;;;;;8.80;2.00;;;9.10;99.90;;;;;;5051329;28;20147;-67
2023/05/16 05:20:05;;;;;;;8.73;2.47;;;9.20;99.90;;;;;;5051338;28;20044;-67
2023/05/16 05:22:31;;;;;;;10.20;1.60;;;9.20;99.90;;;;;;5051999;28;20033;-66
2023/05/16 05:24:57;;;;;;;9.35;1.70;;;9.30;99.90;;;;;;5050596;28;20400;-67
2023/05/16 05:27:22;;;;;;;13.40;1.70;;;9.60;99.90;;;;;;5051530;28;20037;-67
2023/05/16 05:29:48;;;;;;;12.68;2.10;;;9.80;99.90;;;;;;5051663;28;20033;-67
2023/05/16 05:32:13;;;;;;;11.77;2.40;;;9.80;99.90;;;;;;5050374;28;20047;-67
2023/05/16 05:34:39;;;;;;;8.55;2.17;;;9.80;99.90;;;;;;5051849;28;20033;-67
2023/05/16 05:37:04;;;;;;;9.60;2.28;;;9.80;99.90;;;;;;5051518;28;20033;-66
2023/05/16 05:39:30;;;;;;;10.57;2.45;;;9.60;99.90;;;;;;5050124;28;20044;-67
2023/05/16 05:41:56;;;;;;;7.90;2.20;;;9.60;99.90;;;;;;5051649;28;20323;-67
2023/05/16 05:44:21;;;;;;;11.32;2.78;;;9.70;99.90;;;;;;5051471;28;20041;-67
2023/05/16 05:46:47;;;;;;;15.00;4.13;;;9.60;99.90;;;;;;5051348;28;20037;-66
2023/05/16 05:49:13;;;;;;;6.40;2.63;;;9.90;99.90;;;;;;5051601;28;20041;-66
2023/05/16 05:51:38;;;;;;;12.85;2.40;;;10.30;99.90;;;;;;5033724;28;20408;-67
2023/05/16 05:54:04;;;;;;;5.50;1.90;;;10.80;99.90;;;;;;5051513;28;20037;-66
2023/05/16 05:56:30;;;;;;;7.10;2.08;;;11.10;99.90;;;;;;5051413;28;20048;-69
2023/05/16 05:58:55;;;;;;;9.63;1.83;;;11.50;99.90;;;;;;5051346;28;20044;-67
2023/05/16 06:01:21;;;;;;;12.35;3.17;;;12.00;99.90;;;;;;5051453;28;20040;-67
2023/05/16 06:03:47;;;;;;;12.65;1.60;;;12.20;99.90;;;;;;5063718;28;20498;-67
2023/05/16 06:06:13;;;;;;;8.77;2.33;;;12.50;99.90;;;;;;5091691;28;20529;-67
2023/05/16 06:08:39;;;;;;;6.07;1.67;;;12.70;99.90;;;;;;5090111;28;20492;-67
2023/05/16 06:11:05;;;;;;;5.47;1.40;;;13.00;99.90;;;;;;5090349;28;20082;-66
2023/05/16 06:13:31;;;;;;;9.68;1.70;;;13.20;99.90;;;;;;5090238;28;20040;-67
2023/05/16 06:15:56;;;;;;;9.23;2.58;;;13.50;99.90;;;;;;5089854;28;20046;-68
2023/05/16 06:18:22;;;;;;;7.88;1.42;;;13.70;99.90;;;;;;5091443;28;20117;-67
2023/05/16 06:20:47;;;;;;;5.63;1.40;;;13.70;99.90;;;;;;5091042;28;20123;-67
2023/05/16 06:23:13;;;;;;;11.27;2.83;;;13.50;99.90;;;;;;5091031;28;20445;-66
2023/05/16 06:25:38;;;;;;;7.93;2.13;;;13.70;99.90;;;;;;5091408;28;20036;-67
2023/05/16 06:28:04;;;;;;;6.30;1.58;;;13.10;99.90;;;;;;5091328;28;20035;-67
2023/05/16 06:30:30;;;;;;;7.32;1.67;;;13.30;99.90;;;;;;5091764;28;20047;-67
2023/05/16 06:32:55;;;;;;;7.57;1.67;;;13.50;99.90;;;;;;5095282;28;20040;-67
2023/05/16 06:35:21;;;;;;;4.00;1.20;;;13.60;99.90;;;;;;5095085;28;20054;-67
2023/05/16 06:37:47;;;;;;;4.88;0.93;;;13.60;99.90;;;;;;5093721;28;20182;-68
2023/05/16 06:40:13;;;;;;;10.77;1.85;;;13.80;99.90;;;;;;5094994;28;20131;-67
2023/05/16 06:42:38;;;;;;;6.22;1.83;;;13.80;99.90;;;;;;5095025;28;20032;-67
2023/05/16 06:45:04;;;;;;;4.78;1.35;;;13.80;99.90;;;;;;5095315;28;20039;-67
2023/05/16 06:47:30;;;;;;;7.10;1.42;;;13.90;99.90;;;;;;5093276;28;20036;-67
2023/05/16 06:49:56;;;;;;;4.85;1.10;;;13.90;99.90;;;;;;5094987;28;20032;-67
2023/05/16 06:52:21;;;;;;;4.65;1.48;;;13.60;99.90;;;;;;5093492;28;20410;-67
2023/05/16 06:54:47;;;;;;;4.72;1.10;;;13.00;99.90;;;;;;5094703;28;20032;-67
2023/05/16 06:57:12;;;;;;;9.13;1.25;;;12.80;99.90;;;;;;5094523;28;20032;-67
2023/05/16 06:59:38;;;;;;;8.98;1.70;;;12.90;99.90;;;;;;5094580;28;20495;-67
2023/05/16 07:02:05;;;;;;;7.50;1.30;;;13.30;99.90;;;;;;5094550;28;20044;-67
2023/05/16 07:04:31;;;;;;;6.45;1.25;;;13.50;99.90;;;;;;5094371;28;20127;-67
2023/05/16 07:06:57;;;;;;;7.50;1.00;;;13.90;99.90;;;;;;5094361;28;20036;-67
2023/05/16 07:09:23;;;;;;;7.65;1.30;;;14.10;99.90;;;;;;5094408;28;20064;-68
2023/05/16 07:11:48;;;;;;;4.70;1.48;;;13.90;99.90;;;;;;5094440;28;20549;-67
2023/05/16 07:14:14;;;;;;;6.90;1.13;;;13.50;99.90;;;;;;5094085;28;20114;-67
2023/05/16 07:16:39;;;;;;;6.28;1.23;;;13.20;99.90;;;;;;5092874;28;20040;-66
2023/05/16 07:19:05;;;;;;;3.67;0.88;;;12.90;99.70;;;;;;5094007;28;20058;-67
2023/05/16 07:21:30;;;;;;;6.82;1.25;;;13.20;99.30;;;;;;5094363;28;20042;-67
2023/05/16 07:23:56;;;;;;;11.18;1.40;;;13.60;99.30;;;;;;5093990;28;20089;-66
2023/05/16 07:26:22;;;;;;;6.72;1.10;;;14.10;99.50;;;;;;5094002;28;20036;-67
2023/05/16 07:28:51;;;;;;;5.43;1.10;;;14.50;99.50;;;;;;5093877;28;20074;-67
2023/05/16 07:31:17;;;;;;;6.68;1.48;;;14.80;98.20;;;;;;5093893;28;20040;-67
2023/05/16 07:33:45;;;;;;;6.72;1.73;;;14.90;97.20;;;;;;5093872;28;20040;-67
2023/05/16 07:36:11;;;;;;;4.72;1.40;;;15.20;96.00;;;;;;5093866;28;20036;-67
2023/05/16 07:38:37;;;;;;;7.65;1.05;;;15.20;95.20;;;;;;5093499;28;20503;-67
2023/05/16 07:41:03;;;;;;;4.97;1.63;;;15.20;96.00;;;;;;5093890;28;20090;-67
2023/05/16 07:43:28;;;;;;;4.10;1.60;;;15.40;96.50;;;;;;5093018;28;20039;-67
2023/05/16 07:45:54;;;;;;;6.18;1.40;;;14.90;96.60;;;;;;5093586;28;20125;-67
2023/05/16 07:48:19;;;;;;;8.88;2.45;;;14.30;96.60;;;;;;5093757;28;20040;-67
2023/05/16 07:50:45;;;;;;;6.90;1.45;;;13.70;97.30;;;;;;5093735;28;20040;-67
2023/05/16 07:53:11;;;;;;;3.15;1.15;;;13.90;97.40;;;;;;5093493;28;20042;-67
2023/05/16 07:55:36;;;;;;;7.22;1.80;;;14.30;97.40;;;;;;5093429;28;20040;-67
2023/05/16 07:58:02;;;;;;;8.93;1.42;;;14.60;97.10;;;;;;5093095;28;20122;-67
2023/05/16 08:00:28;;;;;;;6.53;2.30;;;14.70;96.50;;;;;;5093518;28;20040;-66
2023/05/16 08:02:54;;;;;;;8.73;1.80;;;15.20;96.10;;;;;;5093489;28;20399;-67
2023/05/16 08:05:19;;;;;;;7.05;1.50;;;15.50;95.40;;;;;;5093083;28;20084;-67
2023/05/16 08:07:45;;;;;;;8.82;2.28;;;15.30;94.30;;;;;;5093030;28;20396;-67
2023/05/16 08:10:11;;;;;;;7.30;1.05;;;15.70;94.40;;;;;;5093259;28;20119;-67
2023/05/16 08:12:36;;;;;;;5.05;1.27;;;15.50;93.70;;;;;;5091904;28;20135;-67
2023/05/16 08:15:03;;;;;;;7.80;1.63;;;15.00;94.00;;;;;;5093235;28;20048;-67
2023/05/16 08:17:28;;;;;;;4.90;1.50;;;14.70;94.20;;;;;;5092781;28;20127;-67
2023/05/16 08:19:54;;;;;;;9.60;1.38;;;14.80;94.10;;;;;;5093479;28;20115;-67
2023/05/16 08:22:20;;;;;;;2.42;0.73;;;14.50;94.70;;;;;;5093007;28;20043;-67
2023/05/16 08:24:46;;;;;;;7.05;1.60;;;14.00;93.90;;;;;;5092897;28;20133;-67
2023/05/16 08:27:11;;;;;;;6.90;1.27;;;14.50;95.00;;;;;;5092611;28;20127;-67
2023/05/16 08:29:37;;;;;;;6.47;1.27;;;14.80;94.60;;;;;;5093064;28;20430;-67
2023/05/16 08:32:02;;;;;;;11.95;2.03;;;15.10;94.20;;;;;;5091751;28;20043;-67
2023/05/16 08:34:31;;;;;;;6.70;2.35;;;14.70;93.20;;;;;;5092799;28;20499;-67
2023/05/16 08:36:56;;;;;;;7.32;1.23;;;14.20;92.20;;;;;;5092716;28;20043;-66
2023/05/16 08:39:22;;;;;;;5.38;1.30;;;13.90;94.60;;;;;;5092662;28;20040;-67
2023/05/16 08:41:48;;;;;;;6.53;1.20;;;13.80;94.60;;;;;;5091269;28;20527;-66
2023/05/16 08:44:20;;;;;;;5.88;0.77;;;13.90;94.30;;;;;;5092684;28;20051;-67
2023/05/16 08:46:51;;;;;;;5.75;0.93;;;14.30;94.20;;;;;;5092636;28;20043;-68
2023/05/16 08:49:17;;;;;;;7.15;1.10;;;14.60;93.20;;;;;;5092504;28;20059;-70
2023/05/16 08:51:45;;;;;;;4.80;0.98;;;14.90;93.70;;;;;;5092502;28;20495;-69
2023/05/16 08:54:12;;;;;;;8.48;1.33;;;15.30;93.00;;;;;;5091314;28;20568;-70
2023/05/16 08:56:39;;;;;;;10.65;2.08;;;15.50;93.60;;;;;;5092280;28;20044;-73
2023/05/16 08:59:06;;;;;;;4.20;1.25;;;15.40;92.50;;;;;;5090980;28;20047;-68
2023/05/16 09:01:32;;;;;;;4.03;1.25;;;15.40;91.70;;;;;;5092206;28;20689;-70
2023/05/16 09:03:59;;;;;;;9.68;1.80;;;15.00;92.80;;;;;;5091999;28;20083;-70
2023/05/16 09:06:25;;;;;;;3.67;1.27;;;14.60;94.10;;;;;;5091042;28;20119;-68
2023/05/16 09:08:52;;;;;;;7.82;1.80;;;14.20;94.50;;;;;;5092031;28;20036;-68
2023/05/16 09:11:18;;;;;;;9.15;2.00;;;14.20;95.40;;;;;;5090940;28;20097;-69
2023/05/16 09:13:44;;;;;;;12.25;1.40;;;14.00;95.70;;;;;;5092132;28;20047;-68
2023/05/16 09:16:19;;;;;;;8.30;1.98;;;14.00;96.00;;;;;;5092096;28;20040;-69
2023/05/16 09:18:55;;;;;;;13.68;1.75;;;14.00;96.40;;;;;;5091944;28;20119;-68
2023/05/16 09:21:22;;;;;;;8.85;1.40;;;14.20;97.50;;;;;;5091983;28;20028;-69
2023/05/16 09:23:49;;;;;;;9.70;1.42;;;14.50;96.80;;;;;;5091763;28;20064;-68
2023/05/16 09:26:15;;;;;;;7.65;2.25;;;14.90;96.10;;;;;;5091999;28;20039;-69
2023/05/16 09:28:42;;;;;;;5.47;1.40;;;15.20;95.40;;;;;;5091882;28;20055;-68
2023/05/16 09:31:25;;;;;;;7.82;1.40;;;15.40;92.60;;;;;;5091956;28;20144;-68
2023/05/16 09:33:59;;;;;;;9.10;1.73;;;14.90;91.50;;;;;;5091820;28;20040;-69
2023/05/16 09:36:25;;;;;;;6.20;1.27;;;14.40;93.70;;;;;;5092009;28;20051;-68
2023/05/16 09:38:52;;;;;;;7.90;1.15;;;14.50;94.90;;;;;;5091709;28;20408;-68
2023/05/16 09:41:17;;;;;;;8.48;1.42;;;14.90;95.30;;;;;;5091858;28;20111;-68
2023/05/16 09:43:44;;;;;;;8.55;1.50;;;15.00;94.90;;;;;;5091679;28;20511;-69
2023/05/16 09:46:16;;;;;;;7.35;1.60;;;14.80;95.30;;;;;;5091651;28;20040;-69
2023/05/16 09:48:46;;;;;;;9.30;1.27;;;14.30;94.60;;;;;;5091408;28;20044;-69
2023/05/16 09:51:13;;;;;;;4.35;1.00;;;13.70;94.70;;;;;;5091856;28;20080;-68
2023/05/16 09:53:39;;;;;;;3.40;0.85;;;13.40;96.40;;;;;;5091643;28;20044;-68
2023/05/16 09:56:06;;;;;;;3.20;0.45;;;12.80;97.20;;;;;;5090229;28;20043;-68
2023/05/16 09:58:34;;;;;;;2.67;0.70;;;12.50;99.70;;;;;;5090225;28;20082;-68
2023/05/16 10:01:01;;;;;;;3.40;0.80;;;12.30;99.90;;;;;;5091588;28;20032;-69
2023/05/16 10:03:27;;;;;;;5.00;0.88;;;12.30;99.90;;;;;;5091113;28;20085;-68
2023/05/16 10:05:53;;;;;;;4.35;1.00;;;12.60;99.90;;;;;;5093997;28;20040;-68
2023/05/16 10:08:25;;;;;;;9.25;1.30;;;13.00;99.90;;;;;;5094100;28;20051;-67
2023/05/16 10:10:53;;;;;;;6.03;1.50;;;13.30;99.90;;;;;;5094374;28;20048;-68
2023/05/16 10:13:32;;;;;;;6.93;1.60;;;13.60;99.90;;;;;;5095483;28;20044;-68
2023/05/16 10:16:00;;;;;;;9.65;2.05;;;13.80;99.90;;;;;;5095555;28;20128;-68
2023/05/16 10:18:30;;;;;;;7.18;1.17;;;13.50;99.90;;;;;;5095154;28;20123;-68
2023/05/16 10:21:01;;;;;;;9.48;1.00;;;13.10;99.90;;;;;;5095465;28;20121;-68
2023/05/16 10:23:27;;;;;;;8.48;1.20;;;13.10;99.90;;;;;;5094185;28;20067;-68
2023/05/16 10:25:56;;;;;;;9.55;1.25;;;13.10;99.90;;;;;;5095104;28;20706;-68
2023/05/16 10:28:23;;;;;;;5.18;1.67;;;13.40;99.90;;;;;;5093851;28;20046;-68
2023/05/16 10:30:50;;;;;;;5.57;1.27;;;13.50;99.90;;;;;;5093861;28;20131;-67
2023/05/16 10:33:17;;;;;;;9.52;1.30;;;13.60;99.10;;;;;;5093970;28;20040;-68
2023/05/16 10:35:45;;;;;;;5.70;1.17;;;14.00;98.80;;;;;;5095086;28;20040;-68
2023/05/16 10:38:13;;;;;;;5.32;1.30;;;13.70;98.60;;;;;;5087263;28;20047;-68
2023/05/16 10:40:40;;;;;;;2.50;0.80;;;13.60;97.80;;;;;;5091970;28;20035;-67
2023/05/16 10:43:07;;;;;;;4.78;1.10;;;13.00;96.70;;;;;;5093717;28;20042;-68
2023/05/16 10:45:34;;;;;;;5.43;1.02;;;13.20;97.20;;;;;;5094914;28;20040;-67
2023/05/16 10:48:07;;;;;;;5.55;1.20;;;13.30;97.30;;;;;;5093047;28;20495;-67
2023/05/16 10:50:44;;;;;;;3.72;0.90;;;13.20;97.60;;;;;;5095231;28;20036;-68
2023/05/16 10:53:15;;;;;;;5.22;1.40;;;13.40;99.00;;;;;;5094718;28;20036;-68
2023/05/16 10:56:00;;;;;;;7.68;1.33;;;13.70;99.00;;;;;;5094815;28;20044;-69
2023/05/16 10:58:41;;;;;;;7.75;1.48;;;13.50;99.10;;;;;;5094782;28;20128;-68
2023/05/16 11:01:34;;;;;;;9.40;1.38;;;13.60;99.10;;;;;;5094811;28;20069;-68
2023/05/16 11:04:05;;;;;;;11.18;1.23;;;13.50;98.90;;;;;;5094511;28;20039;-69
2023/05/16 11:06:52;;;;;;;6.38;1.55;;;13.70;98.60;;;;;;5093494;28;20075;-68
2023/05/16 11:09:26;;;;;;;10.55;1.85;;;13.90;98.80;;;;;;5094038;28;20048;-68
2023/05/16 11:11:51;;;;;;;;;;;13.80;98.80;;;;;;5094928;28;20054;-68
2023/05/16 11:14:21;;;;;;;9.13;1.08;;;13.70;98.80;;;;;;5094539;28;20377;-68
2023/05/16 11:16:50;;;;;;;7.75;1.52;;;13.60;98.60;;;;;;5092135;28;20048;-68
2023/05/16 11:19:44;;;;;;;5.35;1.20;;;13.80;98.40;;;;;;5092845;28;20083;-68
2023/05/16 11:22:22;;;;;;;8.88;2.33;;;13.90;95.20;;;;;;5083166;28;20507;-68
2023/05/16 11:24:58;;;;;;;5.30;1.67;;;14.10;95.40;;;;;;5094384;28;20111;-68
2023/05/16 11:27:29;;;;;;;3.33;1.05;;;13.90;95.70;;;;;;5094308;28;20036;-69
2023/05/16 11:30:00;;;;;;;5.75;1.15;;;13.80;96.70;;;;;;5094428;28;20044;-67
2023/05/16 11:32:25;;;;;;;7.80;1.38;;;13.90;95.40;;;;;;5094359;28;20048;-68
2023/05/16 11:34:52;;;;;;;5.60;1.50;;;14.00;95.90;;;;;;5094251;28;20043;-67
2023/05/16 11:37:18;;;;;;;7.30;1.27;;;13.70;95.40;;;;;;5094061;28;20040;-68
2023/05/16 11:39:45;;;;;;;6.43;1.30;;;13.80;95.10;;;;;;5094242;28;20062;-67
2023/05/16 11:42:10;;;;;;;5.65;1.98;;;13.80;95.60;;;;;;5092700;28;20112;-67
2023/05/16 11:44:36;;;;;;;5.85;1.88;;;13.80;95.60;;;;;;5094028;28;20590;-68
2023/05/16 11:47:02;;;;;;;5.53;1.52;;;13.90;95.00;;;;;;5093500;28;20046;-67
2023/05/16 11:49:29;;;;;;;6.43;1.52;;;13.90;94.20;;;;;;5093728;28;20055;-67
2023/05/16 11:51:56;;;;;;;4.38;1.40;;;13.90;93.40;;;;;;5094142;28;20048;-67
2023/05/16 11:54:23;;;;;;;6.82;1.33;;;14.00;94.00;;;;;;5093862;28;20097;-67
2023/05/16 11:56:52;;;;;;;8.15;1.63;;;14.10;93.20;;;;;;5093499;28;20130;-67
2023/05/16 11:59:18;;;;;;;5.38;1.42;;;13.90;93.10;;;;;;5093505;28;20048;-67
2023/05/16 12:01:44;;;;;;;14.50;3.08;;;13.70;93.70;;;;;;5092347;28;20028;-68
2023/05/16 12:04:14;;;;;;;11.43;1.80;;;13.90;94.60;;;;;;5093392;28;20047;-67
2023/05/16 12:06:44;;;;;;;10.20;2.35;;;14.10;95.80;;;;;;5093404;28;20104;-66
2023/05/16 12:09:14;;;;;;;3.72;1.38;;;14.30;96.80;;;;;;5093351;28;20115;-67
2023/05/16 12:11:43;;;;;;;5.97;2.10;;;14.30;95.90;;;;;;5093333;28;20094;-67
2023/05/16 12:14:11;;;;;;;7.30;1.55;;;14.30;97.10;;;;;;5093170;28;20033;-66
2023/05/16 12:16:41;;;;;;;8.23;1.60;;;14.00;95.50;;;;;;5091612;28;20522;-67
2023/05/16 12:19:07;;;;;;;4.90;1.58;;;14.20;95.10;;;;;;5091951;28;20063;-66
2023/05/16 12:21:33;;;;;;;8.60;2.08;;;14.10;94.20;;;;;;5093222;28;20432;-66
2023/05/16 12:23:59;;;;;;;9.55;2.33;;;14.00;94.60;;;;;;5092956;28;20483;-66
2023/05/16 12:26:29;;;;;;;8.20;1.85;;;13.90;96.00;;;;;;5074967;28;20032;-66
2023/05/16 12:28:59;;;;;;;6.72;1.90;;;13.80;96.40;;;;;;5092518;28;20043;-67
2023/05/16 12:31:25;;;;;;;8.30;1.73;;;13.90;96.60;;;;;;5092887;28;20036;-67
2023/05/16 12:33:54;;;;;;;9.52;2.42;;;13.90;96.60;;;;;;5092793;28;20115;-67
2023/05/16 12:36:20;;;;;;;7.75;1.77;;;13.90;96.70;;;;;;5092683;28;20407;-67
2023/05/16 12:38:46;;;;;;;4.75;1.77;;;13.90;97.30;;;;;;5092636;28;20040;-67
2023/05/16 12:41:17;;;;;;;10.90;2.35;;;13.80;96.90;;;;;;5090796;28;20051;-66
2023/05/16 12:43:43;;;;;;;11.88;2.75;;;13.70;96.20;;;;;;5092527;28;20047;-67
2023/05/16 12:46:11;;;;;;;6.03;2.17;;;13.50;96.40;;;;;;5092393;28;20043;-66
2023/05/16 12:48:38;;;;;;;8.18;2.60;;;13.80;97.80;;;;;;5092602;28;20088;-66
2023/05/16 12:51:31;;;;;;;6.10;2.13;;;13.90;97.20;;;;;;5092554;28;20051;-66
2023/05/16 12:53:56;;;;;;;7.35;2.28;;;14.30;97.40;;;;;;5090023;28;20048;-66